createdAt,value
2018-12-05T00:01:05.874Z,98714.98
2018-12-05T00:02:41.408Z,98713.86
2018-12-05T00:04:17.588Z,98721.38
2018-12-05T00:05:52.831Z,98723.80
2018-12-05T00:07:30.805Z,98725.70
2018-12-05T00:09:09.807Z,98730.06
2018-12-05T00:10:54.719Z,98732.80
2018-12-05T00:12:30.202Z,98732.81
2018-12-05T00:14:06.285Z,98770.29
2018-12-05T00:15:42.227Z,98768.53
2018-12-05T00:17:19.938Z,98772.77
2018-12-05T00:18:56.810Z,98771.00
2018-12-05T00:20:43.686Z,98777.62
2018-12-05T00:22:26.305Z,98780.78
2018-12-05T00:24:05.256Z,98790.54
2018-12-05T00:25:48.992Z,98794.72
2018-12-05T00:29:18.980Z,98802.28
2018-12-05T00:31:01.605Z,98803.27
2018-12-05T00:32:47.006Z,98811.56
2018-12-05T00:34:30.914Z,98812.27
2018-12-05T00:36:12.102Z,98820.57
2018-12-05T00:37:52.388Z,98819.78
2018-12-05T00:39:32.046Z,98831.47
2018-12-05T00:41:17.731Z,98838.77
2018-12-05T00:42:53.372Z,98835.19
2018-12-05T00:44:29.294Z,98847.17
2018-12-05T00:46:06.723Z,98840.80
2018-12-05T00:47:44.732Z,98848.65
2018-12-05T00:49:21.860Z,98847.08
2018-12-05T00:50:58.077Z,98848.52
2018-12-05T00:52:33.632Z,98859.89
2018-12-05T00:54:09.181Z,98865.14
2018-12-05T00:55:45.275Z,98864.02
2018-12-05T00:57:21.436Z,98864.81
2018-12-05T00:58:58.875Z,98877.53
2018-12-05T01:00:46.913Z,98886.07
2018-12-05T01:02:22.433Z,98896.95
2018-12-05T01:03:59.446Z,98904.47
2018-12-05T01:05:34.635Z,98909.44
2018-12-05T01:07:12.301Z,98908.88
2018-12-05T01:08:51.319Z,98919.33
2018-12-05T01:10:28.575Z,98920.34
2018-12-05T01:12:05.662Z,98922.72
2018-12-05T01:13:40.994Z,98928.30
2018-12-05T01:15:16.980Z,98933.81
2018-12-05T01:16:52.180Z,98939.31
2018-12-05T01:18:27.592Z,98943.02
2018-12-05T01:20:03.367Z,98943.72
2018-12-05T01:21:38.499Z,98946.73
2018-12-05T01:23:14.920Z,98950.69
2018-12-05T01:24:51.443Z,98954.86
2018-12-05T01:26:27.620Z,98956.45
2018-12-05T01:28:03.501Z,98960.11
2018-12-05T01:29:38.641Z,98951.24
2018-12-05T01:31:13.912Z,98939.68
2018-12-05T01:32:49.259Z,98935.83
2018-12-05T01:34:25.977Z,98938.52
2018-12-05T01:36:06.977Z,98939.31
2018-12-05T01:37:45.455Z,98937.96
2018-12-05T01:39:23.187Z,98950.88
2018-12-05T01:41:05.927Z,98956.58
2018-12-05T01:42:44.418Z,98966.38
2018-12-05T01:44:19.556Z,98976.51
2018-12-05T01:45:54.862Z,98981.91
2018-12-05T01:47:30.019Z,98979.59
2018-12-05T01:49:05.214Z,98989.95
2018-12-05T01:50:40.768Z,98993.75
2018-12-05T01:52:16.545Z,98997.80
2018-12-05T01:53:52.551Z,99001.84
2018-12-05T01:55:30.954Z,99003.05
2018-12-05T01:57:07.056Z,99001.38
2018-12-05T01:58:42.546Z,98996.87
2018-12-05T02:00:19.440Z,99001.79
2018-12-05T02:01:55.288Z,99002.91
2018-12-05T02:03:32.452Z,99004.53
2018-12-05T02:05:07.723Z,99006.77
2018-12-05T02:06:43.767Z,99015.41
2018-12-05T02:08:18.979Z,99017.86
2018-12-05T02:09:54.451Z,99020.30
2018-12-05T02:11:29.907Z,99021.09
2018-12-05T02:13:06.435Z,99026.69
2018-12-05T02:14:42.577Z,99031.89
2018-12-05T02:16:17.784Z,99034.81
2018-12-05T02:17:53.200Z,99033.01
2018-12-05T02:19:28.476Z,99044.89
2018-12-05T02:21:04.245Z,99047.64
2018-12-05T02:22:39.748Z,99056.70
2018-12-05T02:24:14.905Z,99059.16
2018-12-05T02:25:50.710Z,99058.81
2018-12-05T02:27:26.441Z,99059.59
2018-12-05T02:29:01.668Z,99069.03
2018-12-05T02:30:37.279Z,99074.41
2018-12-05T02:32:12.831Z,99079.56
2018-12-05T02:33:48.015Z,99077.23
2018-12-05T02:35:23.538Z,99079.69
2018-12-05T02:36:58.800Z,99087.97
2018-12-05T02:38:34.316Z,99084.09
2018-12-05T02:40:09.706Z,99074.41
2018-12-05T02:41:45.404Z,99074.78
2018-12-05T02:43:20.728Z,99069.56
2018-12-05T02:44:57.462Z,99066.36
2018-12-05T02:46:33.056Z,99059.33
2018-12-05T02:48:08.371Z,99058.86
2018-12-05T02:49:43.474Z,99062.38
2018-12-05T02:51:18.894Z,99063.48
2018-12-05T02:52:54.046Z,99062.22
2018-12-05T02:54:29.498Z,99066.53
2018-12-05T02:56:09.465Z,99066.94
2018-12-05T02:57:44.700Z,99065.91
2018-12-05T02:59:23.962Z,99069.58
2018-12-05T03:00:59.260Z,99069.10
2018-12-05T03:02:34.391Z,99076.22
2018-12-05T03:04:12.243Z,99074.75
2018-12-05T03:05:47.396Z,99069.52
2018-12-05T03:07:22.607Z,99070.39
2018-12-05T03:08:58.353Z,99072.92
2018-12-05T03:10:35.337Z,99073.00
2018-12-05T03:12:11.404Z,99076.41
2018-12-05T03:13:46.496Z,99079.88
2018-12-05T03:15:22.504Z,99081.39
2018-12-05T03:16:57.992Z,99081.31
2018-12-05T03:18:33.207Z,99095.13
2018-12-05T03:20:08.659Z,99101.86
2018-12-05T03:21:44.348Z,99100.88
2018-12-05T03:23:19.542Z,99096.84
2018-12-05T03:24:55.515Z,99100.37
2018-12-05T03:26:38.017Z,99100.45
2018-12-05T03:28:13.548Z,99108.75
2018-12-05T03:29:51.061Z,99108.44
2018-12-05T03:31:28.995Z,99123.23
2018-12-05T03:33:04.160Z,99132.39
2018-12-05T03:34:41.593Z,99128.59
2018-12-05T03:36:16.945Z,99132.43
2018-12-05T03:37:53.292Z,99134.02
2018-12-05T03:39:30.237Z,99135.91
2018-12-05T03:41:05.885Z,99134.96
2018-12-05T03:42:43.184Z,99139.87
2018-12-05T03:44:19.995Z,99140.81
2018-12-05T03:45:56.599Z,99163.06
2018-12-05T03:47:38.320Z,99158.47
2018-12-05T03:49:15.345Z,99149.21
2018-12-05T03:50:50.932Z,99159.19
2018-12-05T03:52:31.276Z,99158.88
2018-12-05T03:54:08.578Z,99154.44
2018-12-05T03:55:44.654Z,99158.80
2018-12-05T03:57:21.246Z,99159.45
2018-12-05T03:58:56.526Z,99166.74
2018-12-05T04:00:31.727Z,99168.48
2018-12-05T04:02:07.239Z,99169.52
2018-12-05T04:03:42.632Z,99171.97
2018-12-05T04:05:17.860Z,99174.73
2018-12-05T04:06:53.181Z,99169.98
2018-12-05T04:08:28.538Z,99177.93
2018-12-05T04:13:56.136Z,99202.37
2018-12-05T04:15:32.120Z,99200.39
2018-12-05T04:17:08.043Z,99207.96
2018-12-05T04:18:43.297Z,99213.23
2018-12-05T04:20:19.836Z,99205.23
2018-12-05T04:21:55.205Z,99211.02
2018-12-05T04:23:30.632Z,99210.47
2018-12-05T04:25:07.777Z,99220.60
2018-12-05T04:26:43.502Z,99227.25
2018-12-05T04:28:18.580Z,99232.45
2018-12-05T04:29:53.977Z,99238.31
2018-12-05T04:31:29.356Z,99237.05
2018-12-05T04:33:04.727Z,99237.52
2018-12-05T04:34:40.392Z,99240.21
2018-12-05T04:36:15.725Z,99242.66
2018-12-05T04:37:52.694Z,99242.19
2018-12-05T04:39:28.349Z,99244.28
2018-12-05T04:41:04.240Z,99243.73
2018-12-05T04:42:39.551Z,99245.55
2018-12-05T04:44:14.744Z,99245.87
2018-12-05T04:45:50.117Z,99248.88
2018-12-05T04:47:25.183Z,99244.67
2018-12-05T04:49:01.475Z,99244.28
2018-12-05T04:50:39.161Z,99251.59
2018-12-05T04:52:14.795Z,99257.30
2018-12-05T04:53:50.610Z,99256.81
2018-12-05T04:55:25.775Z,99258.88
2018-12-05T04:57:01.336Z,99255.95
2018-12-05T04:58:37.789Z,99258.45
2018-12-05T05:00:14.374Z,99261.38
2018-12-05T05:01:49.730Z,99267.72
2018-12-05T05:03:25.261Z,99266.62
2018-12-05T05:05:00.988Z,99270.41
2018-12-05T05:06:41.717Z,99270.34
2018-12-05T05:08:15.352Z,99267.53
2018-12-05T05:09:50.677Z,99273.58
2018-12-05T05:11:25.785Z,99274.83
2018-12-05T05:13:01.179Z,99279.58
2018-12-05T05:14:36.516Z,99280.92
2018-12-05T05:16:11.833Z,99285.44
2018-12-05T05:17:55.160Z,99301.77
2018-12-05T05:19:30.281Z,99306.83
2018-12-05T05:21:11.253Z,99304.22
2018-12-05T05:22:55.162Z,99307.15
2018-12-05T05:24:30.293Z,99307.94
2018-12-05T05:26:06.616Z,99311.23
2018-12-05T05:27:45.828Z,99316.55
2018-12-05T05:29:19.237Z,99323.45
2018-12-05T05:30:54.607Z,99312.75
2018-12-05T05:32:29.754Z,99314.17
2018-12-05T05:34:04.984Z,99302.61
2018-12-05T05:35:40.336Z,99298.88
2018-12-05T05:37:15.698Z,99301.58
2018-12-05T05:38:51.691Z,99312.24
2018-12-05T05:40:26.901Z,99313.14
2018-12-05T05:42:02.224Z,99312.16
2018-12-05T05:43:42.027Z,99313.94
2018-12-05T05:45:17.557Z,99314.63
2018-12-05T05:46:52.853Z,99308.79
2018-12-05T05:48:28.320Z,99315.58
2018-12-05T05:50:03.604Z,99313.44
2018-12-05T05:51:38.889Z,99307.02
2018-12-05T05:53:14.654Z,99296.88
2018-12-05T05:54:49.827Z,99307.78
2018-12-05T05:56:25.390Z,99315.78
2018-12-05T05:58:00.552Z,99311.50
2018-12-05T05:59:35.684Z,99304.69
2018-12-05T06:01:13.419Z,99306.98
2018-12-05T06:02:49.098Z,99309.52
2018-12-05T06:04:24.619Z,99310.70
2018-12-05T06:05:59.809Z,99314.98
2018-12-05T06:07:34.956Z,99317.13
2018-12-05T06:09:11.800Z,99325.09
2018-12-05T06:10:47.991Z,99317.36
2018-12-05T06:12:25.123Z,99321.72
2018-12-05T06:14:00.299Z,99320.61
2018-12-05T06:15:37.040Z,99325.45
2018-12-05T06:17:12.931Z,99325.05
2018-12-05T06:19:09.413Z,99335.64
2018-12-05T06:21:05.424Z,99336.98
2018-12-05T06:22:41.184Z,99339.37
2018-12-05T06:24:18.316Z,99346.34
2018-12-05T06:25:53.456Z,99345.66
2018-12-05T06:27:28.675Z,99349.75
2018-12-05T06:29:05.278Z,99358.16
2018-12-05T06:30:40.754Z,99360.84
2018-12-05T06:32:17.009Z,99365.61
2018-12-05T06:33:52.890Z,99361.88
2018-12-05T06:35:28.317Z,99372.34
2018-12-05T06:37:03.593Z,99375.91
2018-12-05T06:38:39.523Z,99366.95
2018-12-05T06:40:14.719Z,99374.25
2018-12-05T06:41:50.216Z,99369.80
2018-12-05T06:43:25.729Z,99371.47
2018-12-05T06:45:01.071Z,99372.50
2018-12-05T06:46:36.863Z,99366.55
2018-12-05T06:48:12.377Z,99369.14
2018-12-05T06:49:48.475Z,99365.66
2018-12-05T06:51:24.032Z,99360.61
2018-12-05T06:52:59.178Z,99360.61
2018-12-05T06:54:34.530Z,99367.00
2018-12-05T06:56:10.741Z,99369.77
2018-12-05T06:57:45.763Z,99373.81
2018-12-05T06:59:22.167Z,99369.22
2018-12-05T07:00:57.969Z,99367.55
2018-12-05T07:02:33.364Z,99371.28
2018-12-05T07:04:10.115Z,99366.76
2018-12-05T07:05:45.523Z,99374.89
2018-12-05T07:07:20.720Z,99365.56
2018-12-05T07:08:56.202Z,99363.08
2018-12-05T07:10:31.500Z,99363.66
2018-12-05T07:12:07.845Z,99359.03
2018-12-05T07:13:43.029Z,99365.64
2018-12-05T07:15:19.039Z,99363.74
2018-12-05T07:16:56.231Z,99361.28
2018-12-05T07:18:31.687Z,99354.30
2018-12-05T07:20:09.551Z,99357.56
2018-12-05T07:21:44.864Z,99354.47
2018-12-05T07:23:20.362Z,99355.27
2018-12-05T07:24:55.792Z,99346.78
2018-12-05T07:26:32.120Z,99350.98
2018-12-05T07:28:08.216Z,99358.52
2018-12-05T07:29:45.255Z,99356.56
2018-12-05T07:31:21.135Z,99354.87
2018-12-05T07:32:56.795Z,99362.32
2018-12-05T07:34:32.074Z,99368.19
2018-12-05T07:36:07.398Z,99359.63
2018-12-05T07:37:43.654Z,99360.58
2018-12-05T07:39:19.178Z,99359.70
2018-12-05T07:40:54.752Z,99351.61
2018-12-05T07:42:29.896Z,99353.98
2018-12-05T07:44:11.372Z,99347.38
2018-12-05T07:45:48.265Z,99347.61
2018-12-05T07:47:27.057Z,99347.84
2018-12-05T07:49:02.227Z,99350.22
2018-12-05T07:50:38.801Z,99356.96
2018-12-05T07:52:14.308Z,99352.36
2018-12-05T07:53:49.677Z,99345.38
2018-12-05T07:55:25.049Z,99348.31
2018-12-05T07:57:00.514Z,99351.17
2018-12-05T07:58:36.349Z,99342.76
2018-12-05T08:00:14.380Z,99339.63
2018-12-05T08:01:49.450Z,99341.85
2018-12-05T08:03:30.823Z,99337.64
2018-12-05T08:05:07.684Z,99333.03
2018-12-05T08:06:44.544Z,99332.24
2018-12-05T08:08:20.574Z,99325.18
2018-12-05T08:09:58.747Z,99318.59
2018-12-05T08:11:34.398Z,99316.45
2018-12-05T08:13:10.719Z,99318.82
2018-12-05T08:14:46.576Z,99318.82
2018-12-05T08:16:22.636Z,99314.02
2018-12-05T08:17:58.824Z,99311.41
2018-12-05T08:19:34.575Z,99321.61
2018-12-05T08:21:10.071Z,99312.05
2018-12-05T08:22:48.303Z,99317.36
2018-12-05T08:24:23.503Z,99316.25
2018-12-05T08:25:59.152Z,99310.84
2018-12-05T08:27:41.829Z,99317.03
2018-12-05T08:29:17.014Z,99311.88
2018-12-05T08:30:52.427Z,99305.69
2018-12-05T08:32:29.819Z,99301.46
2018-12-05T08:34:06.524Z,99300.11
2018-12-05T08:35:42.091Z,99299.00
2018-12-05T08:37:17.878Z,99298.32
2018-12-05T08:38:53.253Z,99298.14
2018-12-05T08:40:28.931Z,99286.55
2018-12-05T08:42:04.741Z,99283.44
2018-12-05T08:43:39.972Z,99281.53
2018-12-05T08:45:17.471Z,99284.02
2018-12-05T08:46:52.903Z,99288.20
2018-12-05T08:48:30.282Z,99287.33
2018-12-05T08:50:05.865Z,99278.99
2018-12-05T08:51:41.529Z,99273.38
2018-12-05T08:53:16.648Z,99264.95
2018-12-05T08:54:51.956Z,99265.09
2018-12-05T08:56:27.566Z,99260.95
2018-12-05T08:58:05.697Z,99264.91
2018-12-05T08:59:40.894Z,99257.59
2018-12-05T09:01:16.944Z,99251.28
2018-12-05T09:02:52.163Z,99253.77
2018-12-05T09:04:30.309Z,99246.80
2018-12-05T09:06:05.539Z,99241.83
2018-12-05T09:07:41.835Z,99237.11
2018-12-05T09:09:19.355Z,99234.41
2018-12-05T09:10:56.005Z,99236.78
2018-12-05T09:12:34.093Z,99228.69
2018-12-05T09:14:09.929Z,99230.14
2018-12-05T09:15:45.611Z,99224.64
2018-12-05T09:17:21.874Z,99219.14
2018-12-05T09:18:58.085Z,99208.11
2018-12-05T09:20:33.705Z,99217.23
2018-12-05T09:22:09.616Z,99213.97
2018-12-05T09:23:45.117Z,99208.47
2018-12-05T09:25:20.899Z,99201.27
2018-12-05T09:26:56.201Z,99195.16
2018-12-05T09:28:31.629Z,99189.41
2018-12-05T09:30:08.228Z,99185.48
2018-12-05T09:31:43.517Z,99181.77
2018-12-05T09:33:18.747Z,99176.82
2018-12-05T09:34:54.016Z,99178.27
2018-12-05T09:36:30.000Z,99174.22
2018-12-05T09:38:05.148Z,99170.17
2018-12-05T09:39:40.871Z,99171.98
2018-12-05T09:41:16.527Z,99161.97
2018-12-05T09:42:51.797Z,99157.49
2018-12-05T09:44:26.937Z,99154.23
2018-12-05T09:46:02.079Z,99141.06
2018-12-05T09:47:37.634Z,99127.69
2018-12-05T09:49:13.267Z,99125.64
2018-12-05T09:50:48.569Z,99124.86
2018-12-05T09:52:25.711Z,99117.55
2018-12-05T09:54:01.230Z,99114.84
2018-12-05T09:55:37.398Z,99104.37
2018-12-05T09:57:13.605Z,99093.14
2018-12-05T09:58:53.035Z,99086.48
2018-12-05T10:00:31.554Z,99082.78
2018-12-05T10:02:11.301Z,99076.82
2018-12-05T10:03:46.380Z,99075.82
2018-12-05T10:05:26.712Z,99064.55
2018-12-05T10:07:03.786Z,99061.75
2018-12-05T10:08:43.347Z,99053.63
2018-12-05T10:10:18.550Z,99054.53
2018-12-05T10:11:54.739Z,99048.88
2018-12-05T10:13:31.327Z,99040.33
2018-12-05T10:15:11.659Z,99038.88
2018-12-05T10:16:48.453Z,99032.54
2018-12-05T10:18:24.467Z,99020.27
2018-12-05T10:20:00.243Z,99017.45
2018-12-05T10:21:35.440Z,99008.86
2018-12-05T10:23:12.965Z,99001.53
2018-12-05T10:24:49.046Z,98993.80
2018-12-05T10:26:24.936Z,98987.23
2018-12-05T10:28:01.467Z,98987.98
2018-12-05T10:29:37.513Z,98983.36
2018-12-05T10:31:13.451Z,98974.38
2018-12-05T10:32:51.559Z,98966.91
2018-12-05T10:34:27.419Z,98962.45
2018-12-05T10:36:02.667Z,98958.95
2018-12-05T10:37:38.588Z,98939.69
2018-12-05T10:39:15.968Z,98918.41
2018-12-05T10:40:52.444Z,98925.72
2018-12-05T10:42:27.578Z,98910.50
2018-12-05T10:44:03.364Z,98903.25
2018-12-05T10:45:40.533Z,98894.67
2018-12-05T10:47:15.844Z,98890.23
2018-12-05T10:48:51.244Z,98885.59
2018-12-05T10:50:26.503Z,98883.67
2018-12-05T10:52:06.884Z,98880.18
2018-12-05T10:53:42.932Z,98880.13
2018-12-05T10:55:20.063Z,98880.89
2018-12-05T10:56:56.740Z,98878.79
2018-12-05T10:58:35.324Z,98872.59
2018-12-05T11:00:16.805Z,98873.76
2018-12-05T11:01:57.183Z,98851.98
2018-12-05T11:03:36.096Z,98836.84
2018-12-05T11:05:19.848Z,98820.61
2018-12-05T11:07:01.197Z,98813.72
2018-12-05T11:08:41.724Z,98804.08
2018-12-05T11:12:24.246Z,98794.13
2018-12-05T11:14:04.407Z,98748.25
2018-12-05T11:15:45.653Z,98748.91
2018-12-05T11:17:26.605Z,98724.62
2018-12-05T11:19:06.882Z,98713.80
2018-12-05T11:20:46.983Z,98708.59
2018-12-05T11:22:27.403Z,98692.14
2018-12-05T11:24:12.473Z,98683.80
2018-12-05T11:25:48.012Z,98669.84
2018-12-05T11:27:23.199Z,98668.70
2018-12-05T11:28:59.683Z,98657.45
2018-12-05T11:30:37.247Z,98647.10
2018-12-05T11:32:13.870Z,98642.48
2018-12-05T11:33:49.638Z,98630.16
2018-12-05T11:35:25.098Z,98626.09
2018-12-05T11:37:00.332Z,98624.83
2018-12-05T11:38:36.270Z,98622.81
2018-12-05T11:40:12.479Z,98615.34
2018-12-05T11:41:48.719Z,98595.53
2018-12-05T11:43:24.660Z,98589.03
2018-12-05T11:45:03.058Z,98575.70
2018-12-05T11:46:39.524Z,98566.19
2018-12-05T11:48:16.317Z,98560.45
2018-12-05T11:49:51.448Z,98552.33
2018-12-05T11:51:26.719Z,98555.83
2018-12-05T11:53:01.952Z,98551.91
2018-12-05T11:54:37.452Z,98547.84
2018-12-05T11:56:17.269Z,98528.78
2018-12-05T11:57:53.481Z,98513.09
2018-12-05T11:59:31.111Z,98500.91
2018-12-05T12:01:09.083Z,98501.13
2018-12-05T12:02:46.265Z,98493.92
2018-12-05T12:04:28.791Z,98473.97
2018-12-05T12:06:05.065Z,98464.71
2018-12-05T12:07:45.845Z,98467.06
2018-12-05T12:09:22.751Z,98463.78
2018-12-05T12:10:58.175Z,98451.87
2018-12-05T12:12:39.715Z,98449.01
2018-12-05T12:14:15.292Z,98442.17
2018-12-05T12:15:55.250Z,98445.30
2018-12-05T12:17:30.452Z,98436.04
2018-12-05T12:19:08.356Z,98438.00
2018-12-05T12:20:44.226Z,98426.17
2018-12-05T12:22:19.522Z,98422.80
2018-12-05T12:23:55.010Z,98414.82
2018-12-05T12:25:30.154Z,98414.09
2018-12-05T12:27:06.309Z,98408.31
2018-12-05T12:28:42.497Z,98400.41
2018-12-05T12:30:18.284Z,98393.63
2018-12-05T12:31:54.075Z,98393.42
2018-12-05T12:33:30.072Z,98385.71
2018-12-05T12:35:05.850Z,98373.91
2018-12-05T12:36:44.521Z,98357.58
2018-12-05T12:38:20.011Z,98347.16
2018-12-05T12:39:58.601Z,98342.73
2018-12-05T12:41:33.782Z,98339.61
2018-12-05T12:43:12.418Z,98333.83
2018-12-05T12:44:49.577Z,98327.20
2018-12-05T12:46:25.634Z,98323.41
2018-12-05T12:48:03.158Z,98314.52
2018-12-05T12:49:38.288Z,98312.02
2018-12-05T12:51:16.915Z,98300.19
2018-12-05T12:52:53.248Z,98294.18
2018-12-05T12:54:35.001Z,98282.63
2018-12-05T12:56:11.161Z,98283.76
2018-12-05T12:57:48.536Z,98276.84
2018-12-05T12:59:24.270Z,98269.45
2018-12-05T13:01:04.044Z,98260.75
2018-12-05T13:02:41.990Z,98251.43
2018-12-05T13:04:20.615Z,98242.36
2018-12-05T13:06:00.654Z,98242.73
2018-12-05T13:07:38.849Z,98240.64
2018-12-05T13:09:18.524Z,98230.38
2018-12-05T13:10:55.539Z,98220.58
2018-12-05T13:12:36.626Z,98218.44
2018-12-05T13:14:12.308Z,98213.02
2018-12-05T13:17:31.980Z,98195.20
2018-12-05T13:19:07.988Z,98181.86
2018-12-05T13:20:44.665Z,98171.97
2018-12-05T13:22:20.677Z,98175.97
2018-12-05T13:24:00.124Z,98172.34
2018-12-05T13:25:38.419Z,98165.41
2018-12-05T13:27:17.356Z,98166.23
2018-12-05T13:28:55.692Z,98160.45
2018-12-05T13:30:32.364Z,98154.41
2018-12-05T13:32:07.607Z,98156.33
2018-12-05T13:33:43.416Z,98153.06
2018-12-05T13:35:20.721Z,98143.78
2018-12-05T13:36:56.037Z,98146.11
2018-12-05T13:38:35.298Z,98147.48
2018-12-05T13:40:12.294Z,98137.83
2018-12-05T13:41:49.900Z,98130.27
2018-12-05T13:43:25.542Z,98126.41
2018-12-05T13:45:01.160Z,98117.67
2018-12-05T13:46:37.458Z,98117.91
2018-12-05T13:48:20.574Z,98106.25
2018-12-05T13:49:56.192Z,98105.52
2018-12-05T13:51:32.674Z,98106.70
2018-12-05T13:53:19.601Z,98104.40
2018-12-05T13:54:56.069Z,98096.77
2018-12-05T13:56:31.945Z,98088.48
2018-12-05T13:58:08.103Z,98089.29
2018-12-05T13:59:46.149Z,98086.95
2018-12-05T14:01:23.210Z,98086.00
2018-12-05T14:03:00.397Z,98082.52
2018-12-05T14:04:40.430Z,98076.73
2018-12-05T14:06:18.358Z,98072.70
2018-12-05T14:07:54.949Z,98063.25
2018-12-05T14:09:32.486Z,98058.16
2018-12-05T14:11:08.515Z,98058.77
2018-12-05T14:12:48.053Z,98055.69
2018-12-05T14:14:26.248Z,98049.49
2018-12-05T14:16:06.834Z,98043.46
2018-12-05T14:17:42.997Z,98032.38
2018-12-05T14:19:19.105Z,98025.41
2018-12-05T14:20:54.950Z,98023.48
2018-12-05T14:22:37.584Z,98019.98
2018-12-05T14:24:20.038Z,98017.08
2018-12-05T14:28:02.101Z,97999.97
2018-12-05T14:29:40.404Z,97995.13
2018-12-05T14:31:18.965Z,97997.63
2018-12-05T14:32:56.663Z,98000.14
2018-12-05T14:34:32.947Z,97998.17
2018-12-05T14:36:11.691Z,97993.91
2018-12-05T14:37:50.642Z,97988.48
2018-12-05T14:39:29.703Z,97976.09
2018-12-05T14:41:07.571Z,97968.14
2018-12-05T14:42:46.239Z,97959.00
2018-12-05T14:44:27.364Z,97954.53
2018-12-05T14:46:08.992Z,97947.48
2018-12-05T14:47:45.584Z,97947.25
2018-12-05T14:49:23.498Z,97944.47
2018-12-05T14:51:09.789Z,97935.56
2018-12-05T14:52:45.076Z,97926.22
2018-12-05T14:54:22.375Z,97920.35
2018-12-05T14:55:57.601Z,97922.45
2018-12-05T14:57:34.431Z,97919.73
2018-12-05T14:59:10.496Z,97917.73
2018-12-05T15:00:46.132Z,97926.00
2018-12-05T15:02:29.535Z,97918.78
2018-12-05T15:04:08.593Z,97920.55
2018-12-05T15:05:44.515Z,97913.17
2018-12-05T15:07:24.570Z,97906.37
2018-12-05T15:09:02.048Z,97901.89
2018-12-05T15:10:39.442Z,97900.13
2018-12-05T15:12:17.270Z,97898.33
2018-12-05T15:14:11.262Z,97898.31
2018-12-05T15:15:48.937Z,97891.30
2018-12-05T15:17:25.135Z,97886.80
2018-12-05T15:19:04.000Z,97886.58
2018-12-05T15:20:39.791Z,97884.40
2018-12-05T15:22:18.535Z,97881.65
2018-12-05T15:23:55.500Z,97877.99
2018-12-05T15:25:32.248Z,97875.61
2018-12-05T15:27:09.664Z,97877.70
2018-12-05T15:28:45.192Z,97861.69
2018-12-05T15:30:26.700Z,97866.11
2018-12-05T15:32:02.897Z,97862.47
2018-12-05T15:33:41.949Z,97861.48
2018-12-05T15:35:17.381Z,97855.25
2018-12-05T15:36:53.306Z,97852.59
2018-12-05T15:38:30.383Z,97855.50
2018-12-05T15:40:08.812Z,97849.48
2018-12-05T15:41:44.057Z,97841.05
2018-12-05T15:43:19.499Z,97843.95
2018-12-05T15:44:56.689Z,97834.91
2018-12-05T15:46:32.757Z,97834.55
2018-12-05T15:48:09.946Z,97834.75
2018-12-05T15:49:45.346Z,97832.62
2018-12-05T15:51:21.489Z,97828.16
2018-12-05T15:52:58.716Z,97825.70
2018-12-05T15:54:36.346Z,97826.48
2018-12-05T15:56:13.468Z,97817.55
2018-12-05T15:57:51.985Z,97824.80
2018-12-05T15:59:33.629Z,97809.89
2018-12-05T16:01:11.372Z,97809.28
2018-12-05T16:02:50.107Z,97808.13
2018-12-05T16:04:42.113Z,97813.13
2018-12-05T16:08:22.433Z,97803.50
2018-12-05T16:09:59.349Z,97792.52
2018-12-05T16:11:39.469Z,97791.37
2018-12-05T16:13:15.007Z,97792.28
2018-12-05T16:14:51.176Z,97792.12
2018-12-05T16:16:30.136Z,97787.66
2018-12-05T16:18:07.027Z,97783.06
2018-12-05T16:19:42.676Z,97780.94
2018-12-05T16:21:18.221Z,97768.94
2018-12-05T16:22:54.102Z,97769.71
2018-12-05T16:24:34.232Z,97761.97
2018-12-05T16:26:16.392Z,97760.83
2018-12-05T16:27:56.361Z,97758.36
2018-12-05T16:29:35.433Z,97752.79
2018-12-05T16:31:15.743Z,97752.02
2018-12-05T16:32:51.230Z,97748.36
2018-12-05T16:34:27.499Z,97745.26
2018-12-05T16:36:05.313Z,97736.16
2018-12-05T16:37:41.659Z,97732.92
2018-12-05T16:39:18.547Z,97735.79
2018-12-05T16:40:57.042Z,97731.02
2018-12-05T16:42:37.117Z,97731.60
2018-12-05T16:44:14.490Z,97721.77
2018-12-05T16:45:55.551Z,97714.63
2018-12-05T16:47:34.662Z,97720.21
2018-12-05T16:49:26.683Z,97716.36
2018-12-05T16:51:12.530Z,97716.36
2018-12-05T16:52:56.327Z,97714.80
2018-12-05T16:54:36.173Z,97717.34
2018-12-05T16:56:19.504Z,97703.81
2018-12-05T16:58:01.343Z,97693.98
2018-12-05T16:59:42.734Z,97693.63
2018-12-05T17:01:22.018Z,97694.61
2018-12-05T17:03:01.753Z,97688.42
2018-12-05T17:04:42.841Z,97697.29
2018-12-05T17:06:25.445Z,97697.89
2018-12-05T17:08:06.658Z,97697.11
2018-12-05T17:09:52.238Z,97695.59
2018-12-05T17:11:37.401Z,97692.69
2018-12-05T17:13:18.825Z,97693.27
2018-12-05T17:14:55.412Z,97687.85
2018-12-05T17:16:32.419Z,97685.72
2018-12-05T17:18:12.385Z,97688.22
2018-12-05T17:19:52.848Z,97687.27
2018-12-05T17:21:37.085Z,97687.67
2018-12-05T17:23:17.461Z,97680.14
2018-12-05T17:24:55.612Z,97673.75
2018-12-05T17:26:31.764Z,97669.31
2018-12-05T17:28:07.616Z,97665.69
2018-12-05T17:29:45.268Z,97674.00
2018-12-05T17:31:23.722Z,97668.99
2018-12-05T17:33:01.570Z,97668.98
2018-12-05T17:34:36.711Z,97669.97
2018-12-05T17:36:12.045Z,97665.95
2018-12-05T17:37:48.075Z,97670.02
2018-12-05T17:41:13.188Z,97665.55
2018-12-05T17:42:54.150Z,97660.73
2018-12-05T17:46:18.989Z,97667.91
2018-12-05T17:47:58.297Z,97664.84
2018-12-05T17:49:35.733Z,97662.89
2018-12-05T17:51:11.567Z,97660.58
2018-12-05T17:52:49.246Z,97659.63
2018-12-05T17:54:24.562Z,97661.97
2018-12-05T17:56:02.380Z,97658.88
2018-12-05T17:57:40.659Z,97649.62
2018-12-05T17:59:24.018Z,97651.56
2018-12-05T18:01:03.643Z,97647.50
2018-12-05T18:02:48.163Z,97648.48
2018-12-05T18:04:31.903Z,97641.90
2018-12-05T18:06:10.074Z,97632.81
2018-12-05T18:07:49.952Z,97630.50
2018-12-05T18:09:25.612Z,97627.59
2018-12-05T18:11:05.721Z,97626.64
2018-12-05T18:12:44.184Z,97621.39
2018-12-05T18:14:26.053Z,97622.56
2018-12-05T18:16:04.889Z,97617.53
2018-12-05T18:17:40.970Z,97615.02
2018-12-05T18:19:16.644Z,97616.77
2018-12-05T18:21:01.535Z,97611.75
2018-12-05T18:22:40.222Z,97614.06
2018-12-05T18:24:18.143Z,97615.80
2018-12-05T18:25:58.570Z,97618.32
2018-12-05T18:27:35.477Z,97618.52
2018-12-05T18:29:12.517Z,97609.21
2018-12-05T18:30:49.840Z,97615.83
2018-12-05T18:32:26.491Z,97612.54
2018-12-05T18:34:03.966Z,97609.83
2018-12-05T18:35:40.351Z,97603.26
2018-12-05T18:37:17.528Z,97593.39
2018-12-05T18:38:55.692Z,97591.08
2018-12-05T18:40:31.582Z,97589.13
2018-12-05T18:42:11.259Z,97579.06
2018-12-05T18:43:50.360Z,97574.42
2018-12-05T18:45:27.339Z,97566.32
2018-12-05T18:47:03.488Z,97551.03
2018-12-05T18:48:42.450Z,97545.20
2018-12-05T18:50:20.827Z,97544.64
2018-12-05T18:51:59.591Z,97544.06
2018-12-05T18:53:44.331Z,97546.58
2018-12-05T18:55:24.436Z,97546.37
2018-12-05T18:57:09.416Z,97556.83
2018-12-05T18:58:41.609Z,97546.95
2018-12-05T19:00:18.914Z,97550.63
2018-12-05T19:01:56.483Z,97549.66
2018-12-05T19:03:34.754Z,97554.70
2018-12-05T19:05:10.538Z,97548.70
2018-12-05T19:06:48.702Z,97544.25
2018-12-05T19:08:34.183Z,97543.28
2018-12-05T19:10:08.488Z,97542.89
2018-12-05T19:11:44.560Z,97539.41
2018-12-05T19:13:24.078Z,97533.22
2018-12-05T19:15:05.323Z,97522.58
2018-12-05T19:16:50.395Z,97524.91
2018-12-05T19:18:29.773Z,97523.93
2018-12-05T19:20:14.779Z,97513.30